Time;durP1;ratioP1;P1;durP2;ratioP2;P2;SDS_P1;SDS_P2;PMS_P1;PMS_P2;Temp;Humidity;BMP_temperature;BMP_pressure;BME280_temperature;BME280_humidity;BME280_pressure;Samples;Min_cycle;Max_cycle;Signal;HPM_P1;HPM_P2
2023/08/03 00:01:00;;;;;;;1.05;0.10;;;16.60;96.20;;;;;;4833978;29;20045;-79
2023/08/03 00:03:27;;;;;;;0.65;0.20;;;16.60;96.20;;;;;;4870497;29;20037;-80
2023/08/03 00:05:55;;;;;;;2.42;0.35;;;16.60;96.20;;;;;;4837111;29;20458;-80
2023/08/03 00:08:22;;;;;;;1.75;0.30;;;16.60;96.20;;;;;;4834810;29;20383;-77
2023/08/03 00:10:49;;;;;;;0.52;0.20;;;16.60;96.30;;;;;;4851761;29;20041;-78
2023/08/03 00:13:16;;;;;;;0.20;0.10;;;16.50;96.30;;;;;;4834256;29;20164;-77
2023/08/03 00:15:43;;;;;;;0.20;0.13;;;16.50;96.40;;;;;;4853800;29;20047;-77
2023/08/03 00:18:10;;;;;;;1.08;0.20;;;16.60;96.40;;;;;;4840578;29;20056;-78
2023/08/03 00:20:37;;;;;;;0.50;0.20;;;16.60;96.50;;;;;;4855513;29;20049;-78
2023/08/03 00:23:05;;;;;;;0.77;0.20;;;16.60;96.50;;;;;;4857514;29;20055;-78
2023/08/03 00:25:32;;;;;;;0.82;0.20;;;16.60;96.50;;;;;;4873552;29;20053;-78
2023/08/03 00:27:59;;;;;;;0.57;0.10;;;16.60;96.50;;;;;;4750666;29;20053;-78
2023/08/03 00:30:26;;;;;;;0.60;0.20;;;16.60;96.50;;;;;;4835483;29;20053;-78
2023/08/03 00:32:53;;;;;;;0.52;0.20;;;16.60;96.80;;;;;;4823261;29;20068;-78
2023/08/03 00:35:20;;;;;;;1.35;0.40;;;16.60;96.60;;;;;;4851407;29;20128;-78
2023/08/03 00:37:48;;;;;;;0.88;0.20;;;16.60;96.60;;;;;;4852126;29;20056;-78
2023/08/03 00:40:16;;;;;;;0.88;0.30;;;16.60;96.60;;;;;;4835916;29;20140;-78
2023/08/03 00:42:43;;;;;;;1.45;0.30;;;16.60;96.70;;;;;;4856228;29;20044;-78
2023/08/03 00:45:13;;;;;;;0.47;0.20;;;16.60;96.80;;;;;;4864457;29;20045;-78
2023/08/03 00:47:40;;;;;;;0.73;0.30;;;16.60;96.80;;;;;;4868751;29;20045;-78
2023/08/03 00:50:08;;;;;;;0.82;0.20;;;16.60;96.90;;;;;;4845210;29;20462;-78
2023/08/03 00:52:37;;;;;;;0.93;0.40;;;16.60;97.00;;;;;;4829896;29;20053;-78
2023/08/03 00:55:04;;;;;;;1.75;0.40;;;16.60;97.00;;;;;;4821764;29;20053;-80
2023/08/03 00:57:31;;;;;;;1.95;0.32;;;16.60;97.00;;;;;;4817950;29;20147;-80
2023/08/03 00:59:59;;;;;;;1.48;0.50;;;16.60;97.10;;;;;;4838880;29;20425;-81
2023/08/03 01:02:26;;;;;;;2.53;0.40;;;16.60;97.20;;;;;;4843302;29;20052;-80
2023/08/03 01:04:53;;;;;;;1.98;0.60;;;16.60;97.30;;;;;;4870441;29;20109;-80
2023/08/03 01:07:21;;;;;;;2.42;0.70;;;16.60;97.50;;;;;;4850024;29;20048;-80
2023/08/03 01:09:48;;;;;;;2.13;0.70;;;16.60;97.80;;;;;;4831124;29;20449;-79
2023/08/03 01:12:16;;;;;;;1.35;0.70;;;16.50;98.00;;;;;;4854114;29;20076;-80
2023/08/03 01:14:44;;;;;;;1.92;1.08;;;16.50;97.90;;;;;;4851912;29;20414;-80
2023/08/03 01:17:11;;;;;;;1.63;1.08;;;16.50;98.00;;;;;;4870622;29;20100;-81
2023/08/03 01:19:38;;;;;;;3.72;1.20;;;16.50;98.40;;;;;;4852322;29;20110;-80
2023/08/03 01:22:08;;;;;;;2.50;1.23;;;16.50;98.40;;;;;;4852220;29;20049;-81
2023/08/03 01:24:35;;;;;;;4.95;1.52;;;16.60;98.60;;;;;;4854361;29;20048;-80
2023/08/03 01:27:03;;;;;;;4.32;1.38;;;16.60;98.70;;;;;;4848709;29;20080;-80
2023/08/03 01:29:30;;;;;;;3.22;1.83;;;16.60;98.90;;;;;;4885919;29;20104;-80
2023/08/03 01:31:59;;;;;;;4.57;0.82;;;16.50;98.90;;;;;;4848872;29;20950;-80
2023/08/03 01:34:27;;;;;;;4.05;0.90;;;16.50;99.00;;;;;;4859567;29;20050;-80
2023/08/03 01:36:55;;;;;;;2.45;0.85;;;16.50;99.00;;;;;;4873583;29;20056;-80
2023/08/03 01:39:24;;;;;;;1.58;0.60;;;16.40;99.10;;;;;;4852507;29;20532;-80
2023/08/03 01:41:52;;;;;;;3.88;0.50;;;16.40;99.10;;;;;;4886264;29;20096;-79
2023/08/03 01:44:26;;;;;;;2.63;0.40;;;16.40;99.20;;;;;;4874938;29;20139;-79
2023/08/03 01:46:54;;;;;;;1.90;0.50;;;16.40;99.20;;;;;;4882427;29;20053;-79
2023/08/03 01:49:23;;;;;;;1.85;0.60;;;16.40;99.20;;;;;;4887246;29;21411;-79
2023/08/03 01:52:09;;;;;;;2.85;0.60;;;16.30;99.20;;;;;;4844036;29;20117;-81
2023/08/03 01:54:36;;;;;;;0.95;0.50;;;16.40;99.20;;;;;;4887575;29;20489;-80
2023/08/03 01:57:06;;;;;;;2.70;0.80;;;16.40;99.30;;;;;;4851831;29;20449;-79
2023/08/03 01:59:33;;;;;;;1.95;0.65;;;16.40;99.40;;;;;;4831332;29;20521;-80
2023/08/03 02:02:01;;;;;;;1.85;0.60;;;16.50;99.40;;;;;;4848326;29;20052;-79
2023/08/03 02:04:28;;;;;;;3.53;1.05;;;16.50;99.40;;;;;;4877271;29;20053;-79
2023/08/03 02:07:01;;;;;;;3.10;1.23;;;16.50;99.40;;;;;;4852124;29;20067;-79
2023/08/03 02:09:29;;;;;;;5.55;1.05;;;16.60;99.50;;;;;;4874488;29;20109;-79
2023/08/03 02:11:56;;;;;;;6.30;1.60;;;16.70;99.40;;;;;;4865201;29;20453;-79
2023/08/03 02:14:24;;;;;;;4.88;1.33;;;16.70;99.50;;;;;;4848306;29;20052;-79
2023/08/03 02:16:51;;;;;;;2.42;1.13;;;16.70;99.50;;;;;;4864280;29;20457;-79
2023/08/03 02:19:18;;;;;;;3.17;1.17;;;16.70;99.40;;;;;;4873125;29;20128;-79
2023/08/03 02:21:45;;;;;;;4.68;1.17;;;16.70;99.40;;;;;;4889053;29;20765;-79
2023/08/03 02:24:12;;;;;;;4.55;1.70;;;16.80;99.40;;;;;;4842355;29;20059;-80
2023/08/03 02:26:39;;;;;;;6.80;1.75;;;16.80;99.50;;;;;;4874546;29;20044;-79
2023/08/03 02:29:07;;;;;;;3.47;1.17;;;16.80;99.50;;;;;;4857092;29;20053;-79
2023/08/03 02:31:34;;;;;;;6.03;1.27;;;16.80;99.40;;;;;;4884064;29;20053;-80
2023/08/03 02:34:01;;;;;;;4.15;1.00;;;16.90;99.40;;;;;;4850302;29;20093;-79
2023/08/03 02:36:36;;;;;;;4.10;1.20;;;16.90;99.40;;;;;;4849805;29;20418;-79
2023/08/03 02:39:08;;;;;;;2.33;1.13;;;16.90;99.40;;;;;;4880928;29;20151;-80
2023/08/03 02:41:38;;;;;;;5.85;1.83;;;16.90;99.40;;;;;;4859358;29;20053;-79
2023/08/03 02:44:10;;;;;;;4.57;1.42;;;16.90;99.50;;;;;;4873698;29;20199;-79
2023/08/03 02:46:40;;;;;;;7.43;1.80;;;16.80;99.50;;;;;;4879598;29;20059;-79
2023/08/03 02:49:09;;;;;;;3.42;1.60;;;16.90;99.50;;;;;;4871776;29;20045;-79
2023/08/03 02:51:37;;;;;;;8.05;2.05;;;16.80;99.50;;;;;;4881365;29;20043;-79
2023/08/03 02:54:04;;;;;;;3.85;1.08;;;16.80;99.50;;;;;;4864655;29;20047;-79
2023/08/03 02:56:35;;;;;;;5.05;1.35;;;16.90;99.50;;;;;;4858163;29;20052;-79
2023/08/03 02:59:02;;;;;;;5.45;1.50;;;16.90;99.50;;;;;;4854027;29;20454;-79
2023/08/03 03:01:41;;;;;;;3.47;1.30;;;16.80;99.50;;;;;;4869091;29;20044;-79
2023/08/03 03:04:09;;;;;;;2.40;0.88;;;16.90;99.80;;;;;;4846223;29;20056;-79
2023/08/03 03:06:42;;;;;;;2.27;1.17;;;16.90;99.40;;;;;;4834708;29;20113;-80
2023/08/03 03:09:12;;;;;;;4.50;0.77;;;16.90;99.50;;;;;;4875394;29;20516;-80
2023/08/03 03:11:43;;;;;;;;;;;16.90;99.40;;;;;;4861936;29;20045;-80
2023/08/03 03:14:12;;;;;;;1.35;0.55;;;16.90;99.40;;;;;;4864491;29;19924;-79
2023/08/03 03:16:39;;;;;;;2.20;0.82;;;16.90;99.40;;;;;;4850365;29;20087;-79
2023/08/03 03:19:06;;;;;;;2.05;0.90;;;16.90;99.40;;;;;;4869747;29;20049;-80
2023/08/03 03:21:33;;;;;;;3.00;1.08;;;16.90;99.30;;;;;;4856037;29;20081;-79
2023/08/03 03:24:00;;;;;;;5.32;1.30;;;16.90;99.30;;;;;;4835776;29;20175;-80
2023/08/03 03:26:27;;;;;;;2.80;1.00;;;16.90;99.30;;;;;;4852045;29;20060;-80
2023/08/03 03:28:54;;;;;;;3.22;0.70;;;16.90;99.30;;;;;;4871615;29;20429;-80
2023/08/03 03:31:29;;;;;;;1.25;0.60;;;16.90;99.30;;;;;;4859616;29;20048;-80
2023/08/03 03:33:58;;;;;;;2.15;0.60;;;16.90;99.30;;;;;;4870810;29;20493;-79
2023/08/03 03:36:25;;;;;;;1.90;0.63;;;16.90;99.30;;;;;;4860220;29;20060;-80
2023/08/03 03:38:52;;;;;;;1.55;0.60;;;16.90;99.30;;;;;;4874395;29;21054;-80
2023/08/03 03:41:19;;;;;;;2.25;0.40;;;16.90;99.30;;;;;;4880611;29;20053;-80
2023/08/03 03:43:47;;;;;;;0.70;0.40;;;16.90;99.30;;;;;;4880649;29;20052;-80
2023/08/03 03:46:14;;;;;;;0.88;0.40;;;16.90;99.30;;;;;;4872931;29;20399;-81
2023/08/03 03:49:00;;;;;;;1.27;0.43;;;16.80;99.30;;;;;;4862729;29;20067;-82
2023/08/03 03:51:30;;;;;;;1.90;0.70;;;16.80;99.30;;;;;;4860703;29;20047;-80
2023/08/03 03:53:59;;;;;;;2.75;0.70;;;16.80;99.50;;;;;;4878805;29;20101;-80
2023/08/03 03:56:26;;;;;;;1.17;0.60;;;16.70;99.50;;;;;;4874787;29;20055;-80
2023/08/03 03:58:53;;;;;;;0.93;0.50;;;16.70;99.50;;;;;;4838266;29;20049;-81
2023/08/03 04:01:20;;;;;;;1.92;0.60;;;16.70;99.50;;;;;;4854666;29;20052;-81
2023/08/03 04:03:50;;;;;;;0.98;0.60;;;16.80;99.50;;;;;;4873242;29;20489;-83
2023/08/03 04:06:17;;;;;;;1.60;0.60;;;16.80;99.50;;;;;;4865811;29;20424;-81
2023/08/03 04:08:45;;;;;;;2.65;1.20;;;16.80;99.50;;;;;;4868962;29;20053;-81
2023/08/03 04:11:12;;;;;;;3.58;1.30;;;16.70;99.60;;;;;;4874273;29;20096;-82
2023/08/03 04:13:39;;;;;;;6.90;1.65;;;16.70;99.70;;;;;;4875404;29;20506;-81
2023/08/03 04:16:06;;;;;;;2.05;1.17;;;16.70;99.80;;;;;;4849999;29;20163;-81
2023/08/03 04:18:35;;;;;;;4.55;1.33;;;16.60;99.90;;;;;;4856828;29;20481;-81
2023/08/03 04:21:02;;;;;;;3.97;1.50;;;16.60;99.90;;;;;;4857134;29;20052;-81
2023/08/03 04:23:31;;;;;;;3.95;1.70;;;16.60;99.90;;;;;;4853292;29;20194;-81
2023/08/03 04:26:02;;;;;;;3.97;1.33;;;16.60;99.90;;;;;;4849648;29;20053;-81
2023/08/03 04:28:30;;;;;;;6.10;2.28;;;16.60;99.90;;;;;;4855981;29;20069;-81
2023/08/03 04:30:57;;;;;;;4.63;2.10;;;16.60;99.90;;;;;;4853605;29;20059;-81
2023/08/03 04:33:25;;;;;;;4.95;2.22;;;16.60;99.90;;;;;;4861722;29;20049;-81
2023/08/03 04:35:56;;;;;;;5.80;2.38;;;16.60;99.90;;;;;;4842984;29;20044;-80
2023/08/03 04:38:27;;;;;;;6.65;2.70;;;16.60;99.90;;;;;;4855997;29;21014;-81
2023/08/03 04:41:01;;;;;;;6.95;3.08;;;16.60;99.90;;;;;;4870680;29;20049;-80
2023/08/03 04:43:30;;;;;;;6.03;3.20;;;16.60;99.90;;;;;;4859650;29;20479;-81
2023/08/03 04:45:57;;;;;;;4.60;2.30;;;16.60;99.90;;;;;;4863760;29;20044;-81
2023/08/03 04:48:24;;;;;;;5.32;2.80;;;16.60;99.90;;;;;;4878399;29;20061;-81
2023/08/03 04:50:53;;;;;;;6.88;2.80;;;16.60;99.90;;;;;;4852804;29;20135;-81
2023/08/03 04:53:22;;;;;;;5.90;2.13;;;16.60;99.90;;;;;;4628482;29;20048;-80
2023/08/03 04:55:50;;;;;;;6.97;2.10;;;16.60;99.90;;;;;;4842823;29;20053;-80
2023/08/03 04:58:17;;;;;;;5.15;2.13;;;16.60;99.90;;;;;;4843668;29;20041;-79
2023/08/03 05:00:47;;;;;;;4.25;1.52;;;16.60;99.90;;;;;;4855559;29;20056;-80
2023/08/03 05:03:14;;;;;;;8.10;2.15;;;16.60;99.90;;;;;;4882920;29;20131;-80
2023/08/03 05:05:42;;;;;;;6.13;1.40;;;16.60;99.90;;;;;;4863028;29;20049;-79
2023/08/03 05:08:13;;;;;;;4.22;1.20;;;16.60;99.90;;;;;;4835049;29;20060;-79
2023/08/03 05:10:40;;;;;;;5.65;1.35;;;16.60;99.90;;;;;;4835269;29;20056;-79
2023/08/03 05:13:07;;;;;;;2.33;0.90;;;16.60;99.90;;;;;;4883167;29;20041;-79
2023/08/03 05:15:34;;;;;;;4.43;1.02;;;16.60;99.90;;;;;;4864665;29;20048;-80
2023/08/03 05:18:01;;;;;;;2.30;0.80;;;16.60;99.90;;;;;;4855299;29;21054;-79
2023/08/03 05:20:29;;;;;;;4.70;1.15;;;16.60;99.90;;;;;;4831789;29;20045;-79
2023/08/03 05:22:56;;;;;;;2.78;0.93;;;16.60;99.90;;;;;;4867062;29;20061;-79
2023/08/03 05:25:23;;;;;;;5.00;0.90;;;16.70;99.90;;;;;;4831577;29;20079;-79
2023/08/03 05:27:50;;;;;;;3.67;0.77;;;16.60;99.90;;;;;;4873412;29;20052;-79
2023/08/03 05:30:17;;;;;;;3.30;1.50;;;16.70;99.90;;;;;;4863539;29;20183;-79
2023/08/03 05:33:05;;;;;;;3.00;0.70;;;16.70;99.90;;;;;;4877060;29;20045;-79
2023/08/03 05:35:32;;;;;;;4.80;1.10;;;16.70;99.90;;;;;;4862570;29;20116;-79
2023/08/03 05:37:59;;;;;;;3.78;0.70;;;16.70;99.90;;;;;;4855059;29;20049;-80
2023/08/03 05:40:26;;;;;;;7.00;0.70;;;16.70;99.90;;;;;;4838568;29;20049;-81
2023/08/03 05:42:53;;;;;;;4.53;0.63;;;16.70;99.90;;;;;;4867945;29;20052;-81
2023/08/03 05:45:53;;;;;;;4.78;1.00;;;16.70;99.90;;;;;;4849014;29;21051;-81
2023/08/03 05:48:21;;;;;;;6.07;1.13;;;16.60;99.90;;;;;;4859863;29;20063;-80
2023/08/03 05:50:49;;;;;;;5.30;0.90;;;16.60;99.90;;;;;;4876706;29;20068;-80
2023/08/03 05:53:18;;;;;;;2.67;0.60;;;16.60;99.90;;;;;;4892916;29;20041;-81
2023/08/03 05:55:46;;;;;;;2.40;0.70;;;16.60;99.90;;;;;;4867852;29;20049;-81
2023/08/03 05:58:35;;;;;;;3.97;0.68;;;16.60;99.90;;;;;;4865384;29;20048;-81
2023/08/03 06:01:02;;;;;;;4.50;0.85;;;16.60;99.90;;;;;;4866638;29;20037;-81
2023/08/03 06:03:32;;;;;;;3.38;0.80;;;16.60;99.90;;;;;;4876110;29;20143;-81
2023/08/03 06:06:03;;;;;;;4.00;0.77;;;16.60;99.90;;;;;;4860465;29;21178;-81
2023/08/03 06:08:30;;;;;;;3.50;0.93;;;16.60;99.90;;;;;;4889866;29;20087;-81
2023/08/03 06:11:03;;;;;;;5.07;1.08;;;16.60;99.90;;;;;;4845047;29;20052;-81
2023/08/03 06:13:34;;;;;;;3.92;0.95;;;16.70;99.90;;;;;;4883051;29;20493;-80
2023/08/03 06:16:10;;;;;;;4.55;0.90;;;16.60;99.90;;;;;;4882018;29;20083;-80
2023/08/03 06:18:52;;;;;;;3.35;0.90;;;16.60;99.90;;;;;;4856636;29;20534;-80
2023/08/03 06:21:22;;;;;;;3.72;0.95;;;16.60;99.90;;;;;;4885135;29;20060;-80
2023/08/03 06:23:54;;;;;;;4.22;1.17;;;16.60;99.90;;;;;;4863085;29;20494;-81
2023/08/03 06:26:22;;;;;;;3.97;0.93;;;16.70;99.90;;;;;;4861224;29;20608;-80
2023/08/03 06:28:54;;;;;;;3.90;1.33;;;16.60;99.90;;;;;;4875044;29;20045;-81
2023/08/03 06:31:37;;;;;;;6.10;1.95;;;16.60;99.90;;;;;;4895573;29;20114;-81
2023/08/03 06:34:05;;;;;;;4.57;1.17;;;16.60;99.90;;;;;;4891666;29;20037;-80
2023/08/03 06:36:35;;;;;;;4.65;1.13;;;16.50;99.90;;;;;;4869389;29;20140;-80
2023/08/03 06:39:02;;;;;;;3.10;0.90;;;16.50;99.90;;;;;;4872738;29;20994;-79
2023/08/03 06:41:29;;;;;;;3.47;0.95;;;16.50;99.90;;;;;;4856172;29;20905;-79
2023/08/03 06:43:56;;;;;;;6.63;1.33;;;16.50;99.90;;;;;;4855103;29;20052;-79
2023/08/03 06:46:26;;;;;;;3.90;0.73;;;16.60;99.90;;;;;;4874742;29;20052;-79
2023/08/03 06:48:54;;;;;;;4.63;1.00;;;16.60;99.90;;;;;;4878463;29;20099;-79
2023/08/03 06:51:40;;;;;;;4.75;1.15;;;16.60;99.90;;;;;;4892643;29;20404;-79
2023/08/03 06:54:07;;;;;;;4.47;0.98;;;16.60;99.90;;;;;;4849104;29;20132;-79
2023/08/03 06:56:36;;;;;;;5.65;0.98;;;16.60;99.90;;;;;;4873505;29;20048;-80
2023/08/03 06:59:03;;;;;;;3.25;0.70;;;16.60;99.90;;;;;;4873437;29;20132;-80
2023/08/03 07:01:30;;;;;;;5.20;1.13;;;16.70;99.90;;;;;;4877669;29;20041;-80
2023/08/03 07:03:57;;;;;;;3.78;1.20;;;16.70;99.90;;;;;;4880079;29;20062;-79
2023/08/03 07:06:25;;;;;;;4.20;0.82;;;16.70;99.90;;;;;;4860459;29;20045;-80
2023/08/03 07:08:52;;;;;;;5.40;1.10;;;16.70;99.90;;;;;;4879060;29;20717;-80
2023/08/03 07:11:19;;;;;;;3.35;0.93;;;16.70;99.90;;;;;;4879514;29;20104;-80
2023/08/03 07:13:46;;;;;;;2.63;0.80;;;16.80;99.90;;;;;;4888801;29;20059;-80
2023/08/03 07:16:13;;;;;;;3.35;0.88;;;16.90;99.90;;;;;;4856945;29;20062;-79
2023/08/03 07:18:43;;;;;;;3.88;1.05;;;16.90;99.90;;;;;;4865059;29;20053;-80
2023/08/03 07:21:10;;;;;;;4.30;0.70;;;16.90;99.90;;;;;;4850843;29;20068;-80
2023/08/03 07:23:37;;;;;;;3.85;0.60;;;16.80;99.90;;;;;;4845691;29;20077;-80
2023/08/03 07:26:04;;;;;;;3.33;0.63;;;16.80;99.90;;;;;;4835018;29;20048;-80
2023/08/03 07:28:31;;;;;;;3.70;0.52;;;16.90;99.90;;;;;;4852045;29;20059;-81
2023/08/03 07:30:58;;;;;;;4.97;1.20;;;16.90;99.90;;;;;;4855248;29;20045;-81
2023/08/03 07:33:26;;;;;;;5.55;0.73;;;16.80;99.90;;;;;;4843319;29;20068;-80
2023/08/03 07:35:54;;;;;;;2.65;0.80;;;16.80;99.90;;;;;;4860114;29;20041;-80
2023/08/03 07:38:22;;;;;;;4.22;0.70;;;16.80;99.90;;;;;;4874492;29;20076;-82
2023/08/03 07:40:49;;;;;;;5.95;1.05;;;16.80;99.90;;;;;;4865416;29;20056;-80
2023/08/03 07:43:16;;;;;;;4.05;0.50;;;16.80;99.90;;;;;;4861215;29;20104;-80
2023/08/03 07:45:43;;;;;;;2.47;0.50;;;16.80;99.90;;;;;;4845257;29;20056;-80
2023/08/03 07:48:13;;;;;;;3.47;0.95;;;17.00;99.90;;;;;;4862518;29;20049;-81
2023/08/03 07:50:40;;;;;;;2.47;0.60;;;17.00;99.90;;;;;;4858582;29;20075;-81
2023/08/03 07:53:07;;;;;;;3.08;0.60;;;17.10;99.90;;;;;;4861305;29;20049;-81
2023/08/03 07:55:36;;;;;;;3.45;0.70;;;17.10;99.90;;;;;;4862387;29;20071;-81
2023/08/03 07:58:03;;;;;;;2.17;0.65;;;17.10;99.90;;;;;;4888442;29;20076;-83
2023/08/03 08:00:30;;;;;;;3.75;0.60;;;17.10;99.90;;;;;;4884629;29;20056;-82
2023/08/03 08:02:57;;;;;;;2.42;0.52;;;17.20;99.90;;;;;;4860371;29;20127;-83
2023/08/03 08:05:25;;;;;;;1.33;0.60;;;17.20;99.90;;;;;;4861727;29;20059;-82
2023/08/03 08:07:54;;;;;;;2.08;0.45;;;17.20;99.90;;;;;;4887353;29;20048;-81
2023/08/03 08:10:21;;;;;;;1.45;0.40;;;17.20;99.90;;;;;;4855329;29;20045;-81
2023/08/03 08:12:48;;;;;;;2.97;0.50;;;17.30;99.90;;;;;;4854667;29;20064;-83
2023/08/03 08:15:15;;;;;;;3.17;1.02;;;17.20;99.90;;;;;;4847570;29;20056;-83
2023/08/03 08:17:43;;;;;;;2.05;0.50;;;17.20;99.90;;;;;;4842324;29;20056;-81
2023/08/03 08:20:10;;;;;;;4.07;0.90;;;17.10;99.90;;;;;;4837927;29;20063;-80
2023/08/03 08:22:37;;;;;;;5.38;0.98;;;17.10;99.90;;;;;;4854871;29;20085;-83
2023/08/03 08:25:05;;;;;;;3.53;0.65;;;17.10;99.90;;;;;;4835316;29;20378;-82
2023/08/03 08:27:33;;;;;;;2.40;0.90;;;17.10;99.90;;;;;;4862416;29;20067;-81
2023/08/03 08:30:00;;;;;;;3.13;0.70;;;17.10;99.90;;;;;;4867681;29;20049;-83
2023/08/03 08:32:27;;;;;;;3.47;1.02;;;17.20;99.90;;;;;;4734119;29;20117;-81
2023/08/03 08:34:54;;;;;;;6.53;1.02;;;17.10;99.90;;;;;;4844058;29;20184;-82
2023/08/03 08:37:21;;;;;;;3.75;0.90;;;17.10;99.90;;;;;;4839004;29;20049;-81
2023/08/03 08:39:48;;;;;;;3.33;1.02;;;17.10;99.90;;;;;;4850637;29;20040;-82
2023/08/03 08:42:17;;;;;;;5.93;0.90;;;17.10;99.90;;;;;;4844512;29;20101;-80
2023/08/03 08:44:44;;;;;;;4.28;1.38;;;17.10;99.90;;;;;;4824992;29;20081;-82
2023/08/03 08:47:11;;;;;;;5.07;1.10;;;17.10;99.90;;;;;;4847004;29;20057;-82
2023/08/03 08:49:38;;;;;;;4.65;1.30;;;17.20;99.90;;;;;;4837026;29;20159;-82
2023/08/03 08:52:09;;;;;;;3.75;1.15;;;17.30;99.90;;;;;;4837910;29;20103;-82
2023/08/03 08:54:37;;;;;;;7.00;1.30;;;17.40;99.90;;;;;;4853399;29;20045;-80
2023/08/03 08:57:08;;;;;;;5.22;1.10;;;17.40;99.90;;;;;;4830516;29;20037;-87
2023/08/03 09:00:06;;;;;;;5.38;1.35;;;17.40;99.90;;;;;;4855614;29;20549;-85
2023/08/03 09:02:34;;;;;;;3.45;1.50;;;17.50;99.90;;;;;;4835761;29;20056;-84
2023/08/03 09:05:19;;;;;;;3.00;1.23;;;17.60;99.90;;;;;;4851313;29;20041;-85
2023/08/03 09:08:08;;;;;;;3.22;0.73;;;17.80;99.90;;;;;;4843755;29;20485;-84
2023/08/03 09:10:52;;;;;;;2.50;1.05;;;18.00;99.90;;;;;;4854101;29;20049;-86
2023/08/03 09:13:34;;;;;;;4.40;1.17;;;18.20;99.90;;;;;;4855851;29;20048;-84
2023/08/03 09:16:02;;;;;;;5.13;1.40;;;18.30;99.90;;;;;;4860631;29;20496;-83
2023/08/03 09:18:30;;;;;;;3.35;1.00;;;18.20;99.90;;;;;;4837276;29;20071;-83
2023/08/03 09:21:15;;;;;;;3.85;0.80;;;18.30;99.90;;;;;;4878762;29;20060;-82
2023/08/03 09:24:18;;;;;;;2.05;1.20;;;18.30;99.90;;;;;;4864028;29;20047;-85
2023/08/03 09:26:48;;;;;;;6.13;1.35;;;18.30;99.90;;;;;;4872257;29;20052;-83
2023/08/03 09:29:18;;;;;;;3.97;1.35;;;18.40;99.90;;;;;;4849792;29;20144;-83
2023/08/03 09:32:05;;;;;;;3.95;1.70;;;18.50;99.90;;;;;;4842029;29;20055;-84
2023/08/03 09:34:39;;;;;;;5.18;2.45;;;18.60;99.90;;;;;;4896369;29;20068;-85
2023/08/03 09:37:11;;;;;;;7.50;3.13;;;18.80;99.90;;;;;;4864166;29;20048;-86
2023/08/03 09:39:54;;;;;;;5.63;2.42;;;18.90;99.90;;;;;;4895613;29;20107;-83
2023/08/03 09:42:23;;;;;;;7.15;2.78;;;19.10;99.90;;;;;;4865012;29;20052;-86
2023/08/03 09:44:53;;;;;;;7.53;3.00;;;19.20;99.80;;;;;;4881854;29;20434;-87
2023/08/03 09:47:21;;;;;;;6.10;2.30;;;19.40;99.50;;;;;;4874016;29;20048;-86
2023/08/03 09:49:50;;;;;;;4.63;1.80;;;19.50;99.20;;;;;;4862438;29;20049;-84
2023/08/03 09:52:22;;;;;;;4.50;2.38;;;19.60;99.10;;;;;;4867501;29;20148;-85
2023/08/03 09:55:18;;;;;;;3.33;1.48;;;19.60;99.00;;;;;;4883832;29;20139;-85
2023/08/03 09:58:03;;;;;;;4.70;2.22;;;19.80;99.00;;;;;;4864213;29;20084;-85
2023/08/03 10:00:30;;;;;;;5.57;2.10;;;19.90;98.70;;;;;;4893281;29;20116;-85
2023/08/03 10:03:06;;;;;;;7.50;2.58;;;20.20;98.60;;;;;;4861809;29;20061;-80
2023/08/03 10:05:39;;;;;;;7.20;2.17;;;20.40;98.20;;;;;;4891842;29;20059;-85
2023/08/03 10:08:15;;;;;;;5.10;1.58;;;20.30;97.80;;;;;;4874771;29;20056;-86
2023/08/03 10:10:47;;;;;;;5.13;1.80;;;20.20;98.00;;;;;;4880513;29;20048;-83
2023/08/03 10:13:15;;;;;;;5.85;2.35;;;19.90;98.00;;;;;;4875897;29;20048;-86
2023/08/03 10:15:42;;;;;;;4.00;1.23;;;19.50;98.30;;;;;;4877695;29;20045;-85
2023/08/03 10:18:11;;;;;;;2.85;1.48;;;19.20;98.80;;;;;;4868965;29;20158;-85
2023/08/03 10:20:39;;;;;;;4.20;1.65;;;19.00;99.20;;;;;;4870363;29;20059;-86
2023/08/03 10:23:11;;;;;;;4.85;1.70;;;18.90;99.40;;;;;;4875251;29;20053;-84
2023/08/03 10:25:50;;;;;;;3.83;1.70;;;18.90;99.70;;;;;;4863988;29;20056;-85
2023/08/03 10:28:17;;;;;;;4.30;1.30;;;19.00;99.70;;;;;;4862955;29;20053;-86
2023/08/03 10:31:06;;;;;;;3.38;1.50;;;19.30;99.60;;;;;;4875920;29;20048;-85
2023/08/03 10:33:51;;;;;;;5.65;1.60;;;19.70;99.30;;;;;;4892301;29;20052;-86
2023/08/03 10:36:34;;;;;;;3.30;1.55;;;19.90;98.90;;;;;;4870067;29;20143;-85
2023/08/03 10:39:40;;;;;;;5.47;1.80;;;20.00;98.80;;;;;;4877357;29;20045;-82
2023/08/03 10:42:32;;;;;;;3.05;1.40;;;19.90;98.70;;;;;;4881346;29;20412;-81
2023/08/03 10:45:22;;;;;;;3.28;1.15;;;19.60;98.90;;;;;;4888061;29;20041;-85
2023/08/03 10:47:49;;;;;;;2.60;1.38;;;19.30;99.20;;;;;;4878823;29;20513;-84
2023/08/03 10:50:19;;;;;;;3.70;1.30;;;19.10;99.40;;;;;;4876888;29;20045;-87
2023/08/03 10:52:46;;;;;;;2.30;1.38;;;18.90;99.50;;;;;;4848408;29;20051;-87
2023/08/03 10:55:27;;;;;;;2.92;0.98;;;18.80;99.70;;;;;;4872603;29;20036;-84
2023/08/03 10:57:55;;;;;;;4.55;1.35;;;18.60;99.70;;;;;;4862334;29;20048;-85
2023/08/03 11:00:22;;;;;;;2.45;1.10;;;18.40;99.90;;;;;;4887455;29;20045;-83
2023/08/03 11:02:52;;;;;;;2.35;1.00;;;18.30;99.90;;;;;;4870688;29;20056;-81
2023/08/03 11:05:20;;;;;;;1.98;0.85;;;18.40;99.90;;;;;;4884041;29;20056;-82
2023/08/03 11:07:48;;;;;;;2.40;0.93;;;18.40;99.90;;;;;;4877757;29;20054;-85
2023/08/03 11:10:16;;;;;;;4.10;1.40;;;18.50;99.90;;;;;;4875926;29;20148;-84
2023/08/03 11:12:44;;;;;;;2.00;1.00;;;18.70;99.80;;;;;;4864193;29;20056;-84
2023/08/03 11:15:17;;;;;;;2.30;1.10;;;18.90;99.70;;;;;;4867308;29;20048;-82
2023/08/03 11:17:51;;;;;;;;;;;19.10;99.40;;;;;;4863062;29;20102;-83
2023/08/03 11:20:19;;;;;;;2.47;1.02;;;19.30;99.20;;;;;;4641294;29;20769;-82
2023/08/03 11:22:46;;;;;;;4.25;1.30;;;19.20;99.10;;;;;;4876140;29;20172;-86
2023/08/03 11:25:17;;;;;;;3.88;1.38;;;19.10;99.10;;;;;;4830998;29;20679;-83
2023/08/03 11:27:44;;;;;;;4.97;1.75;;;19.00;99.20;;;;;;4852127;29;20052;-86
2023/08/03 11:30:11;;;;;;;3.90;1.60;;;18.80;99.20;;;;;;4850086;29;20055;-86
2023/08/03 11:32:39;;;;;;;3.38;1.42;;;18.60;99.40;;;;;;4840867;29;20464;-84
2023/08/03 11:35:10;;;;;;;2.92;1.38;;;18.60;99.60;;;;;;4857485;29;20045;-85
2023/08/03 11:37:38;;;;;;;5.03;1.80;;;18.50;99.70;;;;;;4852869;29;20921;-85
2023/08/03 11:40:08;;;;;;;4.05;1.90;;;18.40;99.70;;;;;;4858040;29;20519;-86
2023/08/03 11:42:56;;;;;;;4.70;1.40;;;18.40;99.80;;;;;;4877278;29;20085;-86
2023/08/03 11:45:24;;;;;;;5.38;1.77;;;18.60;99.80;;;;;;4867757;29;20094;-84
2023/08/03 11:48:10;;;;;;;6.13;1.75;;;18.70;99.70;;;;;;4849475;29;20041;-84
2023/08/03 11:50:37;;;;;;;3.95;2.25;;;18.70;99.50;;;;;;4872802;29;20045;-88
2023/08/03 11:53:05;;;;;;;3.05;1.75;;;18.60;99.60;;;;;;4853676;29;20044;-84
2023/08/03 11:55:45;;;;;;;3.50;1.80;;;18.60;99.70;;;;;;4858870;29;20504;-86
2023/08/03 11:58:12;;;;;;;3.72;1.50;;;18.60;99.70;;;;;;4852365;29;20053;-84
2023/08/03 12:00:41;;;;;;;4.05;1.42;;;18.50;99.80;;;;;;4859787;29;20119;-82
2023/08/03 12:03:08;;;;;;;3.25;1.20;;;18.50;99.90;;;;;;4857976;29;20045;-84
2023/08/03 12:05:49;;;;;;;3.35;1.50;;;18.50;99.90;;;;;;4875450;29;20049;-82
2023/08/03 12:08:26;;;;;;;4.68;1.33;;;18.60;99.80;;;;;;4857201;29;20482;-81
2023/08/03 12:11:02;;;;;;;2.25;0.80;;;18.70;99.90;;;;;;4855850;29;20060;-81
2023/08/03 12:13:29;;;;;;;5.18;1.05;;;19.00;99.70;;;;;;4875809;29;20049;-81
2023/08/03 12:15:56;;;;;;;8.85;1.35;;;19.50;99.40;;;;;;4859378;29;20442;-81
2023/08/03 12:18:25;;;;;;;4.00;1.13;;;19.40;98.50;;;;;;4828098;29;20041;-80
2023/08/03 12:20:52;;;;;;;4.65;1.17;;;19.40;98.60;;;;;;4888010;29;20131;-82
2023/08/03 12:23:26;;;;;;;3.37;0.70;;;19.30;98.50;;;;;;4878906;29;20103;-86
2023/08/03 12:25:54;;;;;;;3.57;1.20;;;19.20;98.60;;;;;;4878476;29;20295;-82
2023/08/03 12:28:22;;;;;;;1.30;0.60;;;19.10;98.60;;;;;;4876510;29;20056;-80
2023/08/03 12:30:56;;;;;;;2.15;0.93;;;19.20;98.70;;;;;;4853895;29;20474;-84
2023/08/03 12:33:23;;;;;;;1.52;0.63;;;19.80;98.20;;;;;;4858208;29;20489;-88
2023/08/03 12:35:51;;;;;;;2.33;0.73;;;20.40;97.10;;;;;;4893232;29;20434;-82
2023/08/03 12:38:18;;;;;;;2.15;0.85;;;20.20;96.60;;;;;;4827808;29;20394;-84
2023/08/03 12:40:46;;;;;;;2.30;0.47;;;19.80;97.00;;;;;;4872347;29;20056;-77
2023/08/03 12:43:14;;;;;;;1.65;0.40;;;19.50;97.40;;;;;;4871595;29;20116;-78
2023/08/03 12:45:44;;;;;;;1.58;0.30;;;19.40;97.60;;;;;;4845995;29;20067;-78
2023/08/03 12:48:11;;;;;;;1.48;0.30;;;19.20;97.80;;;;;;4852117;29;20049;-78
2023/08/03 12:50:41;;;;;;;1.00;0.30;;;19.20;98.00;;;;;;4877726;29;20048;-77
2023/08/03 12:53:11;;;;;;;0.65;0.30;;;19.40;98.00;;;;;;4865484;29;20071;-81
2023/08/03 12:55:38;;;;;;;2.55;0.30;;;19.50;97.80;;;;;;4863050;29;20085;-82
2023/08/03 12:58:05;;;;;;;1.38;0.20;;;19.70;97.60;;;;;;4863227;29;20389;-82
2023/08/03 13:00:33;;;;;;;2.10;0.30;;;19.90;97.30;;;;;;4849888;29;20053;-81
2023/08/03 13:03:00;;;;;;;2.10;0.30;;;20.00;96.90;;;;;;4865024;29;20048;-81